Time;durP1;ratioP1;P1;durP2;ratioP2;P2;SDS_P1;SDS_P2;PMS_P1;PMS_P2;Temp;Humidity;BMP_temperature;BMP_pressure;BME280_temperature;BME280_humidity;BME280_pressure;Samples;Min_cycle;Max_cycle;Signal;HPM_P1;HPM_P2
2021/09/17 00:01:14;;;;;;;6.33;4.90;;;;;;;16.72;84.75;96480.56;4976579;28;20646;-58
2021/09/17 00:03:40;;;;;;;5.00;4.60;;;;;;;16.59;85.55;96470.44;4975924;28;20424;-54
2021/09/17 00:06:05;;;;;;;5.37;4.97;;;;;;;16.62;85.65;96477.88;4976278;28;20685;-58
2021/09/17 00:08:31;;;;;;;9.33;4.57;;;;;;;16.67;85.30;96479.75;4976219;28;20174;-59
2021/09/17 00:10:56;;;;;;;5.47;5.07;;;;;;;16.72;85.27;96474.47;4976011;28;20181;-58
2021/09/17 00:13:23;;;;;;;6.70;5.00;;;;;;;16.75;84.59;96471.28;4975644;28;20657;-58
2021/09/17 00:15:49;;;;;;;5.03;4.63;;;;;;;16.79;84.75;96473.16;4976015;28;20214;-53
2021/09/17 00:18:14;;;;;;;6.27;4.60;;;;;;;16.80;84.58;96479.25;4976232;28;20513;-58
2021/09/17 00:20:39;;;;;;;5.60;5.17;;;;;;;16.81;84.12;96478.19;4976578;28;20214;-58
2021/09/17 00:23:05;;;;;;;6.00;5.40;;;;;;;16.77;84.83;96483.22;4974992;28;20208;-58
2021/09/17 00:25:30;;;;;;;9.80;5.90;;;;;;;16.80;84.80;96477.38;4975900;28;20186;-53
2021/09/17 00:27:56;;;;;;;6.00;5.47;;;;;;;16.88;83.97;96476.91;4975656;28;20178;-53
2021/09/17 00:30:24;;;;;;;5.27;4.83;;;;;;;16.69;85.38;96477.59;4975908;28;20266;-59
2021/09/17 00:32:49;;;;;;;5.70;5.20;;;;;;;16.66;85.80;96476.28;4975649;28;20637;-53
2021/09/17 00:35:15;;;;;;;6.10;5.50;;;;;;;16.68;86.07;96470.72;4976045;28;20471;-53
2021/09/17 00:37:42;;;;;;;5.90;4.33;;;;;;;16.71;86.27;96465.69;4975704;28;20266;-53
2021/09/17 00:40:09;;;;;;;4.97;4.57;;;;;;;16.78;85.97;96466.22;4975133;28;20457;-53
2021/09/17 00:42:37;;;;;;;6.30;4.93;;;;;;;16.82;85.50;96464.66;4975730;28;20402;-57
2021/09/17 00:45:04;;;;;;;5.00;4.60;;;;;;;16.86;85.48;96454.31;4975745;28;20430;-53
2021/09/17 00:47:30;;;;;;;5.07;4.67;;;;;;;16.85;85.51;96456.16;4975533;28;20417;-58
2021/09/17 00:49:55;;;;;;;5.93;5.43;;;;;;;16.91;85.66;96456.97;4975744;28;20420;-58
2021/09/17 00:52:21;;;;;;;5.53;5.03;;;;;;;16.98;85.46;96455.66;4975541;28;20209;-58
2021/09/17 00:54:46;;;;;;;5.73;5.33;;;;;;;17.01;85.23;96462.31;4974765;28;20280;-59
2021/09/17 00:57:12;;;;;;;4.97;4.57;;;;;;;16.93;86.13;96460.16;4975523;28;20214;-58
2021/09/17 00:59:37;;;;;;;5.83;5.33;;;;;;;16.93;85.81;96453.00;4975516;28;20630;-53
2021/09/17 01:02:03;;;;;;;7.60;4.63;;;;;;;16.93;85.50;96462.81;4975415;28;20178;-58
2021/09/17 01:04:29;;;;;;;7.10;4.90;;;;;;;16.95;85.56;96458.06;4974974;28;20170;-53
2021/09/17 01:06:55;;;;;;;5.60;5.00;;;;;;;16.94;85.71;96459.91;4975409;28;20413;-58
2021/09/17 01:09:21;;;;;;;4.10;3.77;;;;;;;16.90;85.63;96450.09;4975016;28;20943;-58
2021/09/17 01:11:46;;;;;;;4.77;4.40;;;;;;;16.97;85.08;96458.59;4975279;28;20523;-59
2021/09/17 01:14:12;;;;;;;6.73;4.40;;;;;;;16.85;85.55;96450.06;4974685;28;20201;-58
2021/09/17 01:16:38;;;;;;;4.60;4.30;;;;;;;16.82;85.94;96451.38;4975053;28;20194;-54
2021/09/17 01:19:03;;;;;;;5.50;4.30;;;;;;;16.95;85.48;96444.78;4974798;28;20788;-58
2021/09/17 01:21:29;;;;;;;7.27;4.97;;;;;;;17.00;85.30;96456.19;4975093;28;20178;-58
2021/09/17 01:23:54;;;;;;;6.60;4.70;;;;;;;16.96;85.71;96451.66;4974814;28;20257;-58
2021/09/17 01:26:20;;;;;;;4.67;4.27;;;;;;;16.91;86.30;96446.34;4975240;28;20193;-52
2021/09/17 01:28:45;;;;;;;5.30;4.70;;;;;;;16.92;86.34;96445.31;4975231;28;20228;-58
2021/09/17 01:31:11;;;;;;;5.53;4.97;;;;;;;17.05;85.47;96450.88;4974994;28;20181;-53
2021/09/17 01:33:36;;;;;;;4.93;4.50;;;;;;;17.03;86.05;96447.69;4973496;28;20182;-53
2021/09/17 01:36:06;;;;;;;5.30;4.90;;;;;;;17.09;86.02;96437.88;4974809;28;20214;-53
2021/09/17 01:38:33;;;;;;;5.70;4.87;;;;;;;17.22;85.04;96434.72;4974867;28;20196;-53
2021/09/17 01:40:59;;;;;;;4.90;4.40;;;;;;;17.20;85.12;96436.84;4975041;28;20409;-52
2021/09/17 01:43:25;;;;;;;5.50;5.00;;;;;;;17.22;85.36;96429.41;4974589;28;20452;-58
2021/09/17 01:45:51;;;;;;;5.50;5.00;;;;;;;17.29;85.01;96436.03;4974886;28;20520;-53
2021/09/17 01:48:17;;;;;;;4.90;4.60;;;;;;;17.16;85.45;96438.41;4974720;28;20508;-58
2021/09/17 01:50:42;;;;;;;5.20;4.80;;;;;;;17.13;85.60;96431.00;4974945;28;20177;-58
2021/09/17 01:53:08;;;;;;;5.00;4.60;;;;;;;17.22;84.72;96427.53;4974434;28;20220;-53
2021/09/17 01:55:34;;;;;;;7.63;5.20;;;;;;;17.23;84.90;96425.66;4974864;28;20210;-53
2021/09/17 01:57:59;;;;;;;6.63;5.47;;;;;;;17.26;84.94;96419.84;4974749;28;20656;-53
2021/09/17 02:00:25;;;;;;;5.70;5.30;;;;;;;17.33;84.35;96417.72;4974354;28;20189;-53
2021/09/17 02:02:50;;;;;;;5.10;4.70;;;;;;;17.37;84.05;96418.78;4974196;28;20182;-53
2021/09/17 02:05:16;;;;;;;5.43;4.80;;;;;;;17.28;84.39;96415.84;4974765;28;20189;-53
2021/09/17 02:07:42;;;;;;;5.10;4.70;;;;;;;17.29;84.29;96414.00;4974649;28;20181;-53
2021/09/17 02:10:08;;;;;;;5.07;4.67;;;;;;;17.27;84.35;96418.75;4974741;28;20413;-58
2021/09/17 02:12:34;;;;;;;5.33;4.93;;;;;;;17.24;84.22;96408.69;4974713;28;20633;-58
2021/09/17 02:14:59;;;;;;;5.53;5.13;;;;;;;17.25;84.22;96404.94;4973880;28;20457;-58
2021/09/17 02:17:26;;;;;;;5.10;4.70;;;;;;;17.19;84.79;96409.47;4974663;28;20232;-53
2021/09/17 02:19:51;;;;;;;5.20;4.80;;;;;;;17.18;85.11;96413.19;4974473;28;20261;-58
2021/09/17 02:22:17;;;;;;;5.93;5.43;;;;;;;17.18;85.40;96413.19;4974533;28;20517;-58
2021/09/17 02:24:42;;;;;;;5.10;4.63;;;;;;;17.13;85.74;96410.53;4974038;28;20273;-53
2021/09/17 02:27:08;;;;;;;5.47;4.97;;;;;;;17.21;85.25;96415.31;4973312;28;20174;-53
2021/09/17 02:29:33;;;;;;;6.33;5.07;;;;;;;17.26;85.12;96420.66;4974293;28;20173;-58
2021/09/17 02:31:58;;;;;;;5.60;5.20;;;;;;;17.26;84.55;96410.03;4974236;28;20261;-53
2021/09/17 02:34:24;;;;;;;6.10;4.73;;;;;;;17.25;84.42;96407.59;4973901;28;20673;-58
2021/09/17 02:36:50;;;;;;;4.93;4.63;;;;;;;17.21;85.03;96409.22;4974365;28;20577;-58
2021/09/17 02:39:15;;;;;;;5.80;5.40;;;;;;;17.22;85.40;96410.81;4974510;28;20174;-58
2021/09/17 02:41:42;;;;;;;7.00;4.93;;;;;;;17.17;86.31;96408.16;4974444;28;20208;-59
2021/09/17 02:44:08;;;;;;;5.60;5.03;;;;;;;17.20;86.13;96405.75;4973825;28;20542;-58
2021/09/17 02:46:34;;;;;;;5.00;4.70;;;;;;;17.20;85.99;96399.66;4976820;28;20445;-58
2021/09/17 02:49:00;;;;;;;5.33;4.83;;;;;;;17.20;86.32;96402.31;4977984;28;20776;-53
2021/09/17 02:51:25;;;;;;;4.90;4.50;;;;;;;17.21;86.31;96406.56;4978086;28;20214;-53
2021/09/17 02:53:50;;;;;;;5.27;4.70;;;;;;;17.17;86.82;96405.50;4977385;28;20253;-53
2021/09/17 02:56:16;;;;;;;5.50;5.03;;;;;;;17.17;87.18;96405.50;4977887;28;20284;-58
2021/09/17 02:58:41;;;;;;;5.10;4.80;;;;;;;17.25;86.42;96394.31;4977946;28;20638;-54
2021/09/17 03:01:06;;;;;;;5.33;4.83;;;;;;;17.36;86.13;96388.75;4977318;28;20170;-53
2021/09/17 03:03:32;;;;;;;6.90;5.10;;;;;;;17.40;86.01;96391.66;4977328;28;20649;-53
2021/09/17 03:05:57;;;;;;;5.07;4.70;;;;;;;17.41;85.87;96394.06;4977623;28;20181;-58
2021/09/17 03:08:23;;;;;;;4.87;4.00;;;;;;;17.37;85.75;96393.00;4977699;28;20167;-53
2021/09/17 03:10:48;;;;;;;5.60;5.10;;;;;;;17.35;86.28;96397.00;4977590;28;20546;-53
2021/09/17 03:13:13;;;;;;;4.77;4.27;;;;;;;17.45;85.69;96391.66;4977248;28;20197;-58
2021/09/17 03:15:39;;;;;;;5.77;5.23;;;;;;;17.47;85.90;96389.56;4976932;28;20198;-58
2021/09/17 03:18:04;;;;;;;4.90;4.50;;;;;;;17.48;85.89;96380.53;4977964;28;20213;-53
2021/09/17 03:20:30;;;;;;;5.13;4.73;;;;;;;17.53;85.71;96385.03;4977436;28;20182;-53
2021/09/17 03:22:55;;;;;;;5.17;4.50;;;;;;;17.54;85.23;96384.75;4977089;28;20181;-58
2021/09/17 03:25:20;;;;;;;5.67;5.27;;;;;;;17.51;85.48;96380.00;4977369;28;20182;-58
2021/09/17 03:27:46;;;;;;;5.33;4.83;;;;;;;17.50;85.71;96385.59;4977145;28;20610;-54
2021/09/17 03:30:12;;;;;;;7.30;5.40;;;;;;;17.44;86.37;96388.22;4976956;28;20174;-53
2021/09/17 03:32:38;;;;;;;5.37;5.03;;;;;;;17.44;86.60;96388.22;4977044;28;20201;-54
2021/09/17 03:35:04;;;;;;;5.93;5.43;;;;;;;17.54;85.03;96386.66;4976994;28;20829;-58
2021/09/17 03:37:29;;;;;;;4.73;4.40;;;;;;;17.47;85.06;96384.25;4976895;28;20925;-53
2021/09/17 03:39:54;;;;;;;5.50;5.10;;;;;;;17.39;85.75;96384.78;4977234;28;20181;-53
2021/09/17 03:42:20;;;;;;;7.43;4.80;;;;;;;17.45;85.54;96389.00;4976788;28;20173;-58
2021/09/17 03:44:45;;;;;;;5.70;5.30;;;;;;;17.47;85.21;96389.56;4976501;28;20260;-53
2021/09/17 03:47:11;;;;;;;5.53;5.13;;;;;;;17.44;85.54;96390.88;4976868;28;20174;-53
2021/09/17 03:49:36;;;;;;;6.40;5.53;;;;;;;17.46;85.79;96387.94;4976898;28;20253;-58
2021/09/17 03:52:01;;;;;;;7.10;5.10;;;;;;;17.48;85.62;96387.72;4976754;28;20177;-53
2021/09/17 03:54:27;;;;;;;5.53;5.13;;;;;;;17.44;85.66;96390.88;4976430;28;20276;-53
2021/09/17 03:56:57;;;;;;;6.30;5.20;;;;;;;17.42;86.11;96379.72;4975581;28;20182;-53
2021/09/17 03:59:22;;;;;;;6.10;5.60;;;;;;;17.53;85.77;96387.69;4976846;28;20641;-53
2021/09/17 04:01:48;;;;;;;8.03;6.03;;;;;;;17.56;85.34;96384.50;4976625;28;20460;-53
2021/09/17 04:04:14;;;;;;;6.30;5.20;;;;;;;17.59;83.87;96390.09;4976420;28;20224;-53
2021/09/17 04:06:42;;;;;;;6.47;5.97;;;;;;;17.60;83.65;96386.34;4976664;28;20197;-58
2021/09/17 04:09:07;;;;;;;5.83;5.37;;;;;;;17.53;84.11;96385.03;4976650;28;20170;-58
2021/09/17 04:11:33;;;;;;;6.53;5.50;;;;;;;17.48;84.57;96383.19;4976161;28;20480;-53
2021/09/17 04:13:58;;;;;;;6.87;5.53;;;;;;;17.48;85.16;96369.13;4975943;28;20181;-53
2021/09/17 04:16:23;;;;;;;9.83;6.40;;;;;;;17.43;85.47;96369.88;4976295;28;20241;-53
2021/09/17 04:18:49;;;;;;;5.50;5.10;;;;;;;17.45;85.28;96368.56;4976532;28;20174;-58
2021/09/17 04:21:14;;;;;;;6.03;5.53;;;;;;;17.53;85.21;96375.22;4976085;28;20178;-52
2021/09/17 04:23:39;;;;;;;7.33;6.07;;;;;;;17.54;85.16;96376.03;4975919;28;20552;-58
2021/09/17 04:26:05;;;;;;;6.33;5.87;;;;;;;17.55;85.44;96375.75;4976193;28;20186;-59
2021/09/17 04:28:30;;;;;;;6.87;6.17;;;;;;;17.56;84.80;96373.88;4976352;28;20253;-58
2021/09/17 04:30:56;;;;;;;6.13;5.63;;;;;;;17.51;85.66;96379.19;4976060;28;20208;-58
2021/09/17 04:33:21;;;;;;;6.43;5.80;;;;;;;17.55;85.93;96382.91;4975774;28;20178;-58
2021/09/17 04:35:46;;;;;;;5.67;5.27;;;;;;;17.57;85.93;96383.44;4975615;28;20261;-58
2021/09/17 04:38:16;;;;;;;6.47;5.87;;;;;;;17.55;86.20;96394.34;4975918;28;20689;-53
2021/09/17 04:40:43;;;;;;;6.47;5.87;;;;;;;17.53;86.45;96388.50;4976038;28;20193;-58
2021/09/17 04:43:08;;;;;;;6.00;5.50;;;;;;;17.57;86.36;96391.41;4975294;28;20494;-58
2021/09/17 04:45:34;;;;;;;6.63;5.93;;;;;;;17.55;85.65;96394.34;4975903;28;20446;-53
2021/09/17 04:48:07;;;;;;;6.37;5.87;;;;;;;17.60;84.33;96394.34;4975986;28;20185;-53
2021/09/17 04:50:32;;;;;;;6.77;6.27;;;;;;;17.54;84.16;96389.31;4975852;28;20398;-53
2021/09/17 04:52:57;;;;;;;6.73;5.80;;;;;;;17.50;84.66;96393.56;4975480;28;20517;-58
2021/09/17 04:55:23;;;;;;;7.90;7.20;;;;;;;17.36;85.38;96394.06;4975504;28;20710;-58
2021/09/17 04:57:48;;;;;;;6.20;5.60;;;;;;;17.33;85.53;96402.59;4975267;28;20560;-53
2021/09/17 05:00:14;;;;;;;6.00;5.50;;;;;;;17.42;84.64;96397.53;4975577;28;20225;-53
2021/09/17 05:02:39;;;;;;;6.77;6.07;;;;;;;17.35;84.98;96397.00;4975223;28;20178;-53
2021/09/17 05:05:05;;;;;;;7.10;6.50;;;;;;;17.33;85.15;96389.28;4975423;28;20672;-58
2021/09/17 05:07:33;;;;;;;6.57;6.07;;;;;;;17.33;84.27;96396.47;4975030;28;20193;-53
2021/09/17 05:09:59;;;;;;;7.17;6.50;;;;;;;17.33;84.34;96394.59;4975016;28;20649;-53
2021/09/17 05:12:24;;;;;;;7.70;7.00;;;;;;;17.24;85.01;96398.06;4975161;28;20450;-58
2021/09/17 05:14:49;;;;;;;6.83;6.23;;;;;;;17.21;85.18;96395.94;4974453;28;20210;-58
2021/09/17 05:17:15;;;;;;;6.40;5.90;;;;;;;17.22;85.48;96393.03;4975026;28;20182;-53
2021/09/17 05:19:40;;;;;;;7.00;6.40;;;;;;;17.19;85.29;96400.72;4975088;28;20170;-53
2021/09/17 05:22:06;;;;;;;7.03;6.33;;;;;;;17.20;85.56;96402.31;4975178;28;20217;-53
2021/09/17 05:24:31;;;;;;;7.30;6.60;;;;;;;17.26;84.96;96395.94;4974626;28;20249;-58
2021/09/17 05:26:56;;;;;;;6.50;6.00;;;;;;;17.24;84.58;96404.19;4975333;28;20517;-53
2021/09/17 05:29:22;;;;;;;7.63;7.03;;;;;;;17.20;84.59;96405.75;4975107;28;20174;-58
2021/09/17 05:31:47;;;;;;;7.20;6.50;;;;;;;17.14;84.85;96406.00;4974907;28;20173;-59
2021/09/17 05:34:13;;;;;;;6.87;6.33;;;;;;;17.12;85.21;96408.16;4974761;28;20196;-53
2021/09/17 05:36:38;;;;;;;7.47;6.77;;;;;;;17.19;84.26;96411.34;4974794;28;20261;-53
2021/09/17 05:39:03;;;;;;;6.90;6.30;;;;;;;17.20;83.75;96415.59;4974757;28;20178;-58
2021/09/17 05:41:29;;;;;;;8.33;6.77;;;;;;;17.18;83.97;96407.88;4974878;28;20578;-53
2021/09/17 05:43:54;;;;;;;6.83;6.13;;;;;;;17.16;84.10;96417.16;4974526;28;20220;-53
2021/09/17 05:46:19;;;;;;;6.60;6.10;;;;;;;17.15;84.28;96420.91;4974918;28;20288;-53
2021/09/17 05:48:45;;;;;;;6.23;5.73;;;;;;;17.15;84.09;96421.72;4974895;28;20181;-59
2021/09/17 05:51:11;;;;;;;7.07;6.47;;;;;;;17.16;84.04;96419.81;4974955;28;20174;-53
2021/09/17 05:53:36;;;;;;;7.13;6.43;;;;;;;17.13;83.82;96420.38;4974045;28;20690;-53
2021/09/17 05:56:02;;;;;;;6.97;6.30;;;;;;;17.09;84.07;96419.28;4974418;28;20563;-53
2021/09/17 05:58:30;;;;;;;6.80;6.20;;;;;;;17.07;84.60;96411.59;4974917;28;20177;-58
2021/09/17 06:00:57;;;;;;;8.30;6.93;;;;;;;17.07;84.85;96414.25;4974750;28;20644;-53
2021/09/17 06:03:22;;;;;;;7.97;7.27;;;;;;;17.09;84.57;96411.31;4974417;28;20426;-58
2021/09/17 06:05:48;;;;;;;11.50;8.30;;;;;;;17.12;84.57;96410.81;4974721;28;20518;-58
2021/09/17 06:08:13;;;;;;;7.47;6.87;;;;;;;17.13;84.62;96409.75;4974405;28;20587;-53
2021/09/17 06:10:38;;;;;;;7.37;6.73;;;;;;;17.12;84.72;96410.81;4974446;28;20174;-53
2021/09/17 06:13:04;;;;;;;8.47;7.67;;;;;;;17.05;85.69;96407.59;4974369;28;20249;-53
2021/09/17 06:15:29;;;;;;;8.73;7.67;;;;;;;17.05;85.76;96408.41;4974593;28;20592;-58
2021/09/17 06:17:54;;;;;;;8.67;7.90;;;;;;;17.08;85.36;96401.78;4974555;28;20170;-53
2021/09/17 06:20:20;;;;;;;8.73;8.03;;;;;;;17.09;84.96;96398.84;4975518;28;20170;-53
2021/09/17 06:22:46;;;;;;;9.50;8.23;;;;;;;17.11;85.12;96402.03;4978247;28;20653;-57
2021/09/17 06:25:15;;;;;;;9.10;8.33;;;;;;;17.02;85.80;96406.28;4977939;28;20201;-58
2021/09/17 06:27:41;;;;;;;8.97;8.17;;;;;;;17.05;85.71;96404.94;4977924;28;20645;-58
2021/09/17 06:30:07;;;;;;;8.60;7.90;;;;;;;17.05;85.73;96404.94;4978499;28;20471;-52
2021/09/17 06:32:32;;;;;;;8.57;7.73;;;;;;;17.01;86.28;96407.34;4978361;28;20413;-53
2021/09/17 06:34:58;;;;;;;9.30;8.50;;;;;;;17.10;86.01;96410.28;4977831;28;20281;-58
2021/09/17 06:37:24;;;;;;;8.60;7.90;;;;;;;17.14;85.33;96403.34;4978073;28;20596;-58
2021/09/17 06:39:49;;;;;;;9.20;8.40;;;;;;;17.20;85.07;96408.41;4978050;28;20178;-58
2021/09/17 06:42:15;;;;;;;10.20;9.20;;;;;;;17.26;84.39;96404.72;4977785;28;20425;-58
2021/09/17 06:44:40;;;;;;;8.93;8.13;;;;;;;17.22;85.28;96402.84;4977647;28;20197;-58
2021/09/17 06:47:05;;;;;;;9.60;8.70;;;;;;;17.31;85.16;96411.88;4978063;28;20170;-59
2021/09/17 06:49:31;;;;;;;9.53;8.60;;;;;;;17.34;84.95;96406.00;4978125;28;20177;-58
2021/09/17 06:51:56;;;;;;;12.17;10.83;;;;;;;17.33;84.28;96399.94;4978070;28;20174;-58
2021/09/17 06:54:22;;;;;;;10.87;9.77;;;;;;;17.43;83.49;96407.06;4977165;28;20237;-58
2021/09/17 06:56:47;;;;;;;10.87;9.87;;;;;;;17.52;83.31;96396.75;4978236;28;20209;-58
2021/09/17 06:59:12;;;;;;;11.40;10.03;;;;;;;17.55;83.46;96402.31;4977701;28;20186;-58
2021/09/17 07:01:38;;;;;;;11.60;10.37;;;;;;;17.51;84.28;96401.25;4977902;28;20667;-53
2021/09/17 07:04:03;;;;;;;11.73;10.67;;;;;;;17.56;83.01;96398.59;4977268;28;20534;-58
2021/09/17 07:06:32;;;;;;;11.90;10.77;;;;;;;17.66;83.24;96400.44;4977766;28;20272;-53
2021/09/17 07:08:57;;;;;;;11.70;10.50;;;;;;;17.68;84.09;96401.78;4977465;28;20185;-53
2021/09/17 07:11:24;;;;;;;10.93;10.00;;;;;;;17.73;83.51;96407.06;4977153;28;20421;-54
2021/09/17 07:13:49;;;;;;;12.67;11.37;;;;;;;17.70;84.06;96406.81;4977432;28;20210;-53
2021/09/17 07:16:15;;;;;;;11.63;10.43;;;;;;;17.79;84.10;96410.50;4977469;28;20471;-58
2021/09/17 07:18:40;;;;;;;10.37;9.47;;;;;;;17.85;84.18;96409.41;4977555;28;20213;-53
2021/09/17 07:21:05;;;;;;;11.13;10.00;;;;;;;17.91;83.91;96411.81;4977568;28;20247;-54
2021/09/17 07:23:31;;;;;;;9.77;8.87;;;;;;;17.92;83.30;96405.41;4976784;28;20682;-53
2021/09/17 07:25:56;;;;;;;12.37;10.67;;;;;;;17.89;83.10;96411.28;4977202;28;20221;-53
2021/09/17 07:28:21;;;;;;;12.63;10.60;;;;;;;17.97;82.65;96410.72;4977445;28;20169;-53
2021/09/17 07:30:47;;;;;;;13.17;11.27;;;;;;;18.02;82.10;96409.91;4977334;28;20181;-58
2021/09/17 07:33:13;;;;;;;11.37;10.27;;;;;;;18.09;81.91;96413.88;4977041;28;20170;-53
2021/09/17 07:35:39;;;;;;;16.63;12.80;;;;;;;17.91;82.37;96411.81;4976925;28;20209;-53
2021/09/17 07:38:04;;;;;;;17.10;11.60;;;;;;;17.97;81.95;96404.63;4977177;28;20433;-57
2021/09/17 07:40:31;;;;;;;14.10;12.40;;;;;;;17.97;81.73;96408.06;4976968;28;20293;-58
2021/09/17 07:42:56;;;;;;;14.13;12.73;;;;;;;18.03;81.68;96414.97;4976766;28;20181;-53
2021/09/17 07:45:23;;;;;;;12.70;11.50;;;;;;;18.06;81.59;96408.31;4975634;28;20799;-53
2021/09/17 07:47:49;;;;;;;12.50;11.33;;;;;;;18.01;82.59;96411.00;4977130;28;20217;-59
2021/09/17 07:50:15;;;;;;;14.90;13.50;;;;;;;17.96;82.61;96411.78;4976977;28;20504;-59
2021/09/17 07:52:41;;;;;;;13.80;11.93;;;;;;;17.97;82.33;96409.94;4976464;28;20189;-54
2021/09/17 07:55:08;;;;;;;11.10;10.10;;;;;;;18.08;81.87;96412.28;4976400;28;20209;-58
2021/09/17 07:57:34;;;;;;;12.33;11.00;;;;;;;18.14;81.98;96405.88;4977072;28;20418;-53
2021/09/17 07:59:59;;;;;;;12.37;11.10;;;;;;;18.26;82.71;96416.22;4976765;28;20825;-53
2021/09/17 08:02:24;;;;;;;11.70;10.50;;;;;;;18.15;80.45;96417.31;4976865;28;20193;-53
2021/09/17 08:04:50;;;;;;;10.50;9.60;;;;;;;18.25;80.45;96414.59;4976385;28;20569;-53
2021/09/17 08:07:15;;;;;;;11.80;10.73;;;;;;;18.14;80.71;96413.84;4976757;28;20541;-53
2021/09/17 08:09:41;;;;;;;10.97;8.93;;;;;;;18.32;80.39;96410.59;4976457;28;20174;-58
2021/09/17 08:12:07;;;;;;;13.43;10.70;;;;;;;18.35;80.02;96412.69;4976694;28;20540;-53
2021/09/17 08:14:32;;;;;;;11.00;10.10;;;;;;;18.54;80.64;96406.78;4976004;28;20200;-52
2021/09/17 08:16:58;;;;;;;10.80;9.90;;;;;;;18.66;81.51;96402.72;4975280;28;20413;-58
2021/09/17 08:19:24;;;;;;;11.23;10.17;;;;;;;18.78;80.98;96408.53;4976506;28;20194;-53
2021/09/17 08:21:50;;;;;;;11.20;10.10;;;;;;;18.87;80.92;96401.53;4976427;28;20213;-58
2021/09/17 08:24:16;;;;;;;13.33;11.93;;;;;;;18.95;79.77;96406.25;4975747;28;20457;-58
2021/09/17 08:26:50;;;;;;;10.23;9.23;;;;;;;18.96;80.18;96407.06;4976187;28;20225;-53
2021/09/17 08:29:16;;;;;;;11.60;10.60;;;;;;;18.92;77.61;96414.81;4976262;28;20178;-53
2021/09/17 08:31:43;;;;;;;14.10;10.97;;;;;;;18.92;77.47;96411.34;4976292;28;20420;-58
2021/09/17 08:34:09;;;;;;;13.00;11.73;;;;;;;18.94;77.02;96412.69;4975609;28;20436;-55
2021/09/17 08:36:35;;;;;;;12.10;10.93;;;;;;;18.98;77.58;96416.38;4975698;28;20900;-53
2021/09/17 08:39:02;;;;;;;12.83;11.57;;;;;;;19.09;76.98;96407.25;4975924;28;20186;-53
2021/09/17 08:41:29;;;;;;;12.90;11.20;;;;;;;18.94;76.35;96403.88;4975956;28;20416;-59
2021/09/17 08:43:54;;;;;;;11.40;10.30;;;;;;;19.11;75.83;96409.63;4975006;28;20409;-53
2021/09/17 08:46:20;;;;;;;12.63;10.30;;;;;;;19.19;77.48;96406.34;4975829;28;20491;-58
2021/09/17 08:48:50;;;;;;;11.27;10.37;;;;;;;19.31;79.15;96410.28;4975876;28;20185;-58
2021/09/17 08:51:20;;;;;;;11.13;10.13;;;;;;;19.45;79.46;96413.13;4975911;28;20178;-53
2021/09/17 08:53:46;;;;;;;10.00;9.00;;;;;;;19.44;79.61;96414.16;4974938;28;20430;-53
2021/09/17 08:56:15;;;;;;;11.10;10.00;;;;;;;19.50;79.73;96415.72;4976033;28;20600;-59
2021/09/17 08:58:41;;;;;;;10.33;9.43;;;;;;;19.50;77.02;96413.06;4975323;28;20923;-53
2021/09/17 09:01:06;;;;;;;10.27;9.40;;;;;;;19.58;75.36;96415.13;4975260;28;20568;-59
2021/09/17 09:03:34;;;;;;;9.20;8.30;;;;;;;19.62;75.02;96413.47;4975203;28;20261;-54
2021/09/17 09:06:26;;;;;;;9.33;8.33;;;;;;;19.69;75.83;96413.97;4975237;28;20609;-59
2021/09/17 09:08:52;;;;;;;10.27;9.37;;;;;;;19.85;76.54;96419.94;4974392;28;20491;-59
2021/09/17 09:11:21;;;;;;;9.97;9.07;;;;;;;19.81;76.80;96417.03;4975519;28;20472;-58
2021/09/17 09:14:06;;;;;;;10.10;9.10;;;;;;;19.85;75.09;96410.06;4974593;28;20285;-54
2021/09/17 09:16:33;;;;;;;10.13;9.33;;;;;;;19.93;75.97;96414.00;4975053;28;20489;-59
2021/09/17 09:19:15;;;;;;;11.00;10.00;;;;;;;19.98;75.51;96412.06;4975269;28;20418;-59
2021/09/17 09:21:41;;;;;;;9.77;8.67;;;;;;;20.05;74.62;96415.19;4975414;28;20892;-59
2021/09/17 09:24:16;;;;;;;11.10;9.63;;;;;;;20.10;75.65;96403.66;4973506;28;20418;-54
2021/09/17 09:26:42;;;;;;;9.57;8.63;;;;;;;20.11;72.87;96405.25;4974972;28;20653;-53
2021/09/17 09:29:29;;;;;;;9.67;8.77;;;;;;;19.68;70.25;96407.03;4975229;28;20410;-53
2021/09/17 09:31:55;;;;;;;9.70;8.90;;;;;;;19.78;71.50;96403.47;4955882;28;20183;-58
2021/09/17 09:34:24;;;;;;;9.57;8.63;;;;;;;19.75;71.70;96404.81;4955246;28;20800;-59
2021/09/17 09:37:06;;;;;;;10.07;9.00;;;;;;;19.89;72.11;96405.72;4955478;28;20506;-59
2021/09/17 09:40:00;;;;;;;8.70;7.83;;;;;;;19.95;71.63;96404.59;4955805;28;20418;-53
2021/09/17 09:42:36;;;;;;;9.77;8.87;;;;;;;20.04;73.16;96394.09;4962048;28;20440;-53
2021/09/17 09:45:18;;;;;;;8.90;8.20;;;;;;;20.08;70.79;96397.78;4974828;28;20437;-54
2021/09/17 09:47:55;;;;;;;7.93;7.23;;;;;;;20.06;69.41;96389.28;4974949;28;20413;-59
2021/09/17 09:50:28;;;;;;;9.50;8.60;;;;;;;20.17;71.23;96393.44;4975017;28;20409;-53
2021/09/17 09:52:56;;;;;;;8.93;8.20;;;;;;;20.26;72.07;96394.41;4974355;28;20413;-59
2021/09/17 09:55:22;;;;;;;8.23;7.40;;;;;;;20.32;73.03;96386.06;4973758;28;21054;-59
2021/09/17 09:57:48;;;;;;;7.20;6.70;;;;;;;20.21;67.17;96386.47;4974362;28;20437;-54
2021/09/17 10:00:15;;;;;;;6.10;5.50;;;;;;;20.04;63.94;96386.09;4974899;28;20533;-53
2021/09/17 10:02:43;;;;;;;7.20;6.70;;;;;;;20.18;64.15;96389.72;4974286;28;20964;-53
2021/09/17 10:05:11;;;;;;;6.23;5.73;;;;;;;20.15;64.42;96385.69;4974735;28;20429;-53
2021/09/17 10:07:37;;;;;;;7.43;6.80;;;;;;;20.06;63.11;96386.59;4974693;28;20433;-53
2021/09/17 10:10:06;;;;;;;5.90;5.43;;;;;;;20.20;63.18;96383.00;4974589;28;20776;-59
2021/09/17 10:12:32;;;;;;;7.10;6.60;;;;;;;20.23;65.41;96381.66;4972920;28;20189;-54
2021/09/17 10:14:59;;;;;;;7.10;6.40;;;;;;;20.33;69.30;96381.50;4974038;28;20469;-53
2021/09/17 10:17:28;;;;;;;8.80;6.47;;;;;;;20.46;69.31;96378.94;4974695;28;20421;-53
2021/09/17 10:19:54;;;;;;;6.50;6.00;;;;;;;20.54;70.70;96372.16;4974411;28;20406;-59
2021/09/17 10:22:31;;;;;;;8.77;6.97;;;;;;;20.58;71.37;96372.38;4974365;28;20418;-54
2021/09/17 10:25:22;;;;;;;6.47;5.87;;;;;;;20.55;69.60;96376.41;4974234;28;20437;-58
2021/09/17 10:28:10;;;;;;;6.47;6.07;;;;;;;20.58;63.83;96369.72;4974724;28;20429;-59
2021/09/17 10:30:39;;;;;;;5.83;5.33;;;;;;;20.59;65.90;96366.75;4974615;28;20791;-59
2021/09/17 10:33:21;;;;;;;6.13;5.53;;;;;;;20.66;65.24;96367.19;4974125;28;20406;-59
2021/09/17 10:35:48;;;;;;;4.37;4.00;;;;;;;20.75;66.56;96368.13;4973361;28;20488;-59
2021/09/17 10:38:26;;;;;;;5.17;4.67;;;;;;;20.85;70.50;96369.84;4973940;28;20524;-53
2021/09/17 10:41:03;;;;;;;3.50;3.20;;;;;;;20.86;68.73;96372.22;4974392;28;20410;-53
2021/09/17 10:43:34;;;;;;;4.50;4.10;;;;;;;20.91;66.35;96361.47;4974050;28;20421;-53
2021/09/17 10:46:02;;;;;;;6.43;5.20;;;;;;;20.98;66.50;96366.44;4974336;28;20480;-59
2021/09/17 10:48:53;;;;;;;7.03;6.43;;;;;;;20.96;67.77;96361.38;4974300;28;20413;-53
2021/09/17 10:51:33;;;;;;;5.10;4.60;;;;;;;20.93;64.77;96361.97;4974394;28;20468;-59
2021/09/17 10:54:00;;;;;;;4.70;4.40;;;;;;;20.94;60.57;96357.41;4973694;28;20444;-59
2021/09/17 10:56:26;;;;;;;4.60;4.00;;;;;;;20.92;62.39;96356.91;4974052;28;20971;-53
2021/09/17 10:59:15;;;;;;;4.57;4.13;;;;;;;20.92;62.10;96354.25;4974341;28;20421;-53
2021/09/17 11:02:01;;;;;;;5.57;5.17;;;;;;;20.87;67.07;96348.97;4973777;28;20413;-59
2021/09/17 11:04:32;;;;;;;4.83;4.37;;;;;;;20.92;66.61;96365.72;4973928;28;20422;-54
2021/09/17 11:07:17;;;;;;;3.93;3.60;;;;;;;20.87;66.31;96363.13;4975855;28;20417;-53
2021/09/17 11:09:44;;;;;;;3.57;3.20;;;;;;;20.88;65.50;96355.91;4973797;28;20426;-53
2021/09/17 11:12:15;;;;;;;3.30;3.10;;;;;;;20.92;64.25;96354.25;4977682;28;20441;-59
2021/09/17 11:14:41;;;;;;;3.60;3.40;;;;;;;20.92;65.16;96356.91;4976958;28;20954;-59
2021/09/17 11:17:06;;;;;;;3.43;3.23;;;;;;;20.92;65.74;96364.94;4977234;28;20433;-59
2021/09/17 11:19:32;;;;;;;3.40;3.10;;;;;;;20.96;66.33;96361.38;4977437;28;20177;-53
2021/09/17 11:22:00;;;;;;;3.37;3.07;;;;;;;20.93;62.91;96359.28;4977569;28;20229;-53
2021/09/17 11:24:28;;;;;;;3.60;3.30;;;;;;;20.98;65.28;96358.44;4977102;28;20425;-59
2021/09/17 11:26:56;;;;;;;3.23;3.03;;;;;;;20.96;64.85;96360.59;4977163;28;20884;-53
2021/09/17 11:29:25;;;;;;;3.70;3.40;;;;;;;20.95;65.98;96359.78;4977588;28;20520;-54